Argyle, Missouri
Current Conditions -  °F | °C
As of 2:53 AM on Thursday 23 Oct 2014 (Local Time) from KVIH Reporting Station
Clear Clear  
Wind Chill: 39°   Ceiling: Unl
Heat Index: 43°   Visibility: 10mi
Dew Point: 38°   Wind: 7mph
Humidity: 82%   Direction: 150°SSE
Pressure: 30.17"   Gusts: NA
Location:  38.29°N, 92.03°W
Report Text: KVIH 230753Z AUTO 15006KT 10SM CLR 06/03 A3017 RMK AO2 SLP217 T00610033
Loading
Personal Weather Stations






























Interactive Weather Map
Tropical Storm Tracking
New forecast layout! Learn more

10-Day Weather Forecast

Advertisements
Track Severe Weather on mobile